Time;durP1;ratioP1;P1;durP2;ratioP2;P2;SDS_P1;SDS_P2;PMS_P1;PMS_P2;Temp;Humidity;BMP_temperature;BMP_pressure;BME280_temperature;BME280_humidity;BME280_pressure;Samples;Min_cycle;Max_cycle;Signal;HPM_P1;HPM_P2
2022/07/19 00:02:07;;;;;;;6.50;3.75;;;;;;;23.00;56.75;101573.41;3598199;39;20079;-64
2022/07/19 00:04:34;;;;;;;10.73;3.97;;;;;;;22.94;57.54;101583.97;3596970;39;20763;-64
2022/07/19 00:07:00;;;;;;;8.10;3.92;;;;;;;22.88;56.82;101554.41;3597457;39;20119;-63
2022/07/19 00:09:26;;;;;;;6.80;3.95;;;;;;;22.90;57.69;101560.59;3595639;39;20086;-64
2022/07/19 00:11:53;;;;;;;5.65;3.53;;;;;;;22.92;57.19;101557.69;3596542;39;20397;-63
2022/07/19 00:14:20;;;;;;;7.28;4.22;;;;;;;22.75;57.76;101537.50;3598493;39;20058;-64
2022/07/19 00:16:46;;;;;;;4.97;3.95;;;;;;;22.70;57.92;101528.88;3597983;39;20055;-64
2022/07/19 00:19:12;;;;;;;9.20;3.63;;;;;;;22.85;56.80;101553.84;3595778;39;20060;-64
2022/07/19 00:21:37;;;;;;;7.88;4.15;;;;;;;22.79;58.25;101555.34;3595413;39;20087;-64
2022/07/19 00:24:03;;;;;;;7.70;3.72;;;;;;;22.79;57.65;101560.81;3596130;39;20114;-64
2022/07/19 00:26:29;;;;;;;10.02;4.00;;;;;;;22.76;57.72;101552.06;3597507;39;20391;-63
2022/07/19 00:28:56;;;;;;;6.63;3.50;;;;;;;22.77;56.88;101551.91;3597023;39;20055;-66
2022/07/19 00:31:23;;;;;;;6.20;3.58;;;;;;;22.75;56.72;101545.72;3597891;39;20053;-64
2022/07/19 00:33:49;;;;;;;8.30;3.72;;;;;;;22.73;57.84;101542.25;3597485;39;20066;-64
2022/07/19 00:36:16;;;;;;;5.38;3.50;;;;;;;22.57;56.50;101532.00;3596023;39;20079;-63
2022/07/19 00:38:42;;;;;;;5.38;3.90;;;;;;;22.67;56.36;101551.97;3595680;39;20495;-63
2022/07/19 00:41:07;;;;;;;7.32;3.65;;;;;;;22.62;56.16;101554.31;3598290;39;20060;-63
2022/07/19 00:43:33;;;;;;;6.97;4.22;;;;;;;22.60;56.36;101550.00;3597850;39;20059;-63
2022/07/19 00:45:59;;;;;;;7.07;3.90;;;;;;;22.58;56.84;101550.19;3598063;39;20064;-63
2022/07/19 00:48:25;;;;;;;6.55;3.80;;;;;;;22.54;57.02;101537.78;3596973;39;20096;-63
2022/07/19 00:50:50;;;;;;;6.30;3.88;;;;;;;22.52;57.90;101541.69;3597411;39;20477;-63
2022/07/19 00:53:19;;;;;;;7.88;3.70;;;;;;;22.47;58.19;101540.28;3598351;39;20039;-64
2022/07/19 00:55:46;;;;;;;9.18;4.28;;;;;;;22.44;59.07;101540.59;3597017;39;20052;-64
2022/07/19 00:58:16;;;;;;;6.40;3.88;;;;;;;22.40;59.02;101544.66;3598204;39;20066;-63
2022/07/19 01:00:42;;;;;;;7.68;4.25;;;;;;;22.37;58.30;101547.72;3586284;39;20129;-63
2022/07/19 01:03:08;;;;;;;8.25;4.05;;;;;;;22.34;59.46;101539.81;3595328;39;20056;-63
2022/07/19 01:05:34;;;;;;;6.00;3.70;;;;;;;22.32;58.12;101540.97;3596277;39;20317;-63
2022/07/19 01:08:01;;;;;;;5.88;3.78;;;;;;;22.31;59.05;101537.38;3597734;39;20394;-63
2022/07/19 01:10:28;;;;;;;6.72;3.60;;;;;;;22.29;57.28;101533.91;3596135;39;20750;-63
2022/07/19 01:12:55;;;;;;;6.47;3.88;;;;;;;22.28;57.43;101540.41;3587450;39;20135;-63
2022/07/19 01:15:27;;;;;;;5.90;3.80;;;;;;;22.28;58.00;101543.16;3597585;39;20059;-63
2022/07/19 01:17:54;;;;;;;6.15;3.58;;;;;;;22.26;57.29;101536.97;3596601;39;20059;-63
2022/07/19 01:20:24;;;;;;;5.07;4.05;;;;;;;22.26;57.54;101547.91;3596622;39;20059;-63
2022/07/19 01:22:49;;;;;;;7.00;3.97;;;;;;;21.85;57.16;101481.72;3597380;39;20124;-63
2022/07/19 01:25:17;;;;;;;6.78;3.70;;;;;;;22.13;56.75;101531.81;3595594;39;20059;-63
2022/07/19 01:27:48;;;;;;;5.55;3.72;;;;;;;22.11;56.66;101533.88;3597361;39;20071;-63
2022/07/19 01:30:21;;;;;;;7.07;4.00;;;;;;;22.09;55.98;101530.41;3598471;39;20372;-63
2022/07/19 01:32:49;;;;;;;7.75;4.10;;;;;;;22.06;57.31;101536.19;3597472;39;20306;-63
2022/07/19 01:35:15;;;;;;;6.90;3.80;;;;;;;22.03;56.39;101540.09;3596967;39;20052;-63
2022/07/19 01:37:41;;;;;;;6.47;4.07;;;;;;;21.71;56.13;101493.16;3594821;39;20063;-63
2022/07/19 01:40:11;;;;;;;6.32;3.67;;;;;;;21.97;56.14;101537.97;3597416;39;20144;-63
2022/07/19 01:42:37;;;;;;;6.97;4.10;;;;;;;21.91;55.65;101533.09;3597660;39;20136;-63
2022/07/19 01:45:06;;;;;;;4.65;3.78;;;;;;;21.81;55.72;101512.25;3599317;39;20051;-63
2022/07/19 01:47:32;;;;;;;5.15;3.58;;;;;;;21.88;54.86;101518.84;3596809;39;20496;-63
2022/07/19 01:49:57;;;;;;;7.72;3.63;;;;;;;21.90;54.60;101531.38;3597268;39;20117;-63
2022/07/19 01:52:23;;;;;;;5.43;3.70;;;;;;;21.90;54.93;101536.84;3598642;39;20052;-63
2022/07/19 01:54:48;;;;;;;5.88;3.47;;;;;;;21.92;55.36;101533.97;3597268;39;20333;-63
2022/07/19 01:57:14;;;;;;;7.75;3.83;;;;;;;21.88;56.32;101540.75;3599051;39;20048;-63
2022/07/19 01:59:40;;;;;;;5.57;3.65;;;;;;;21.85;56.13;101538.31;3597893;39;20079;-63
2022/07/19 02:02:06;;;;;;;4.47;3.78;;;;;;;21.81;55.00;101532.28;3598029;39;20717;-63
2022/07/19 02:04:32;;;;;;;6.85;3.65;;;;;;;21.76;56.69;101531.88;3596798;39;20512;-62
2022/07/19 02:06:58;;;;;;;6.15;3.30;;;;;;;21.70;55.56;101524.28;3598644;39;20059;-63
2022/07/19 02:09:24;;;;;;;6.43;4.03;;;;;;;21.23;55.83;101450.41;3598633;39;20062;-63
2022/07/19 02:11:50;;;;;;;8.98;3.80;;;;;;;21.40;55.96;101485.19;3598566;39;20040;-63
2022/07/19 02:14:16;;;;;;;6.18;3.70;;;;;;;21.62;56.28;101532.38;3597434;39;20116;-63
2022/07/19 02:16:43;;;;;;;4.72;3.67;;;;;;;21.52;57.48;101522.31;3597626;39;20040;-62
2022/07/19 02:19:09;;;;;;;8.23;4.13;;;;;;;21.55;57.76;101530.22;3598197;39;20055;-63
2022/07/19 02:21:37;;;;;;;6.13;3.72;;;;;;;21.52;58.49;101526.94;3598087;39;20071;-63
2022/07/19 02:24:05;;;;;;;6.38;3.92;;;;;;;21.50;57.88;101518.88;3597869;39;20055;-63
2022/07/19 02:26:32;;;;;;;6.03;3.65;;;;;;;21.47;57.35;101510.97;3597170;39;20371;-63
2022/07/19 02:28:58;;;;;;;10.88;3.95;;;;;;;21.45;57.67;101521.19;3599234;39;20124;-63
2022/07/19 02:31:24;;;;;;;5.88;4.03;;;;;;;21.44;57.16;101518.59;3598424;39;20103;-63
2022/07/19 02:33:50;;;;;;;7.57;3.85;;;;;;;21.40;57.72;101518.03;3598621;39;20059;-63
2022/07/19 02:36:17;;;;;;;4.95;3.65;;;;;;;21.38;58.30;101513.75;3598643;39;20440;-63
2022/07/19 02:38:44;;;;;;;6.35;4.15;;;;;;;21.35;57.83;101514.91;3598968;39;20054;-63
2022/07/19 02:41:10;;;;;;;5.85;3.92;;;;;;;21.24;58.45;101502.19;3598717;39;20063;-63
2022/07/19 02:43:36;;;;;;;7.85;4.20;;;;;;;21.27;58.73;101506.53;3587040;39;20106;-63
2022/07/19 02:46:02;;;;;;;6.78;4.00;;;;;;;21.22;58.79;101506.97;3598511;39;20400;-63
2022/07/19 02:48:28;;;;;;;7.03;3.92;;;;;;;21.21;58.48;101504.38;3597316;39;20055;-63
2022/07/19 02:50:53;;;;;;;7.32;4.35;;;;;;;21.17;59.28;101505.69;3596022;39;20109;-63
2022/07/19 02:53:19;;;;;;;6.70;4.30;;;;;;;21.16;59.57;101506.72;3588901;39;20473;-63
2022/07/19 02:55:45;;;;;;;7.68;4.40;;;;;;;21.09;58.99;101498.19;3598151;39;20054;-63
2022/07/19 02:58:10;;;;;;;7.55;4.30;;;;;;;21.10;59.40;101502.69;3599895;39;20307;-63
2022/07/19 03:00:36;;;;;;;8.40;4.72;;;;;;;21.06;59.32;101504.84;3599806;39;20063;-63
2022/07/19 03:05:48;;;;;;;5.43;4.15;;;;;;;20.93;59.30;101496.09;3597918;39;20086;-64
2022/07/19 03:08:15;;;;;;;5.15;4.40;;;;;;;20.68;59.84;101463.88;3598756;39;20073;-63
2022/07/19 03:10:41;;;;;;;8.50;5.00;;;;;;;20.87;59.60;101502.16;3598860;39;20053;-64
2022/07/19 03:13:08;;;;;;;9.73;4.45;;;;;;;20.83;59.91;101497.97;3596913;39;20095;-63
2022/07/19 03:15:35;;;;;;;5.13;4.55;;;;;;;20.81;59.92;101500.00;3595903;39;20179;-62
2022/07/19 03:18:01;;;;;;;8.40;5.18;;;;;;;20.80;59.59;101490.06;3596637;39;20055;-62
2022/07/19 03:20:26;;;;;;;10.90;5.10;;;;;;;20.76;59.27;101489.47;3596148;39;20378;-62
2022/07/19 03:22:52;;;;;;;9.18;5.82;;;;;;;20.59;59.69;101474.69;3595596;39;20059;-62
2022/07/19 03:25:17;;;;;;;8.60;5.50;;;;;;;20.65;59.49;101489.66;3597989;39;20413;-62
2022/07/19 03:27:43;;;;;;;10.52;5.50;;;;;;;20.61;59.32;101485.47;3598272;39;20047;-62
2022/07/19 03:30:09;;;;;;;7.28;5.88;;;;;;;20.57;60.53;101478.56;3597073;39;20055;-62
2022/07/19 03:32:35;;;;;;;9.20;5.70;;;;;;;20.55;60.67;101483.31;3596782;39;20325;-62
2022/07/19 03:35:00;;;;;;;7.18;5.40;;;;;;;20.37;61.28;101453.09;3596254;39;20063;-62
2022/07/19 03:37:26;;;;;;;9.85;5.82;;;;;;;20.54;60.10;101482.44;3600151;39;20310;-62
2022/07/19 03:39:51;;;;;;;11.68;6.53;;;;;;;20.55;60.16;101480.56;3602752;39;20047;-62
2022/07/19 03:42:17;;;;;;;14.52;6.15;;;;;;;20.54;60.08;101487.06;3598583;39;20040;-62
2022/07/19 03:44:43;;;;;;;8.20;5.72;;;;;;;20.53;60.91;101485.34;3596389;39;20402;-61
2022/07/19 03:47:08;;;;;;;12.10;5.97;;;;;;;20.53;60.59;101482.59;3596450;39;20055;-62
2022/07/19 03:49:34;;;;;;;7.25;6.05;;;;;;;20.53;60.69;101480.72;3597524;39;20107;-62
2022/07/19 03:51:59;;;;;;;10.75;5.93;;;;;;;20.48;60.25;101468.47;3600228;39;20301;-63
2022/07/19 03:54:25;;;;;;;12.07;6.50;;;;;;;20.53;60.98;101475.25;3599175;39;20047;-61
2022/07/19 03:56:51;;;;;;;12.88;6.63;;;;;;;20.38;61.43;101454.81;3600117;39;20063;-62
2022/07/19 03:59:16;;;;;;;11.77;6.25;;;;;;;20.49;61.33;101490.19;3599227;39;20054;-61
2022/07/19 04:01:42;;;;;;;11.65;6.60;;;;;;;20.49;61.71;101484.72;3597475;39;20056;-62
2022/07/19 04:04:08;;;;;;;15.05;6.90;;;;;;;20.49;61.09;101484.72;3598307;39;20060;-62
2022/07/19 04:06:33;;;;;;;11.40;6.50;;;;;;;20.52;61.71;101489.06;3598214;39;20099;-61
2022/07/19 04:08:59;;;;;;;14.18;6.25;;;;;;;20.54;62.31;101487.06;3597042;39;20063;-61
2022/07/19 04:11:25;;;;;;;10.43;6.72;;;;;;;20.58;61.86;101488.47;3600640;39;20079;-64
2022/07/19 04:13:50;;;;;;;15.27;7.72;;;;;;;20.60;60.83;101491.94;3600969;39;20058;-62
2022/07/19 04:16:16;;;;;;;12.90;7.20;;;;;;;20.58;60.79;101489.38;3601609;39;20063;-61
2022/07/19 04:18:42;;;;;;;12.65;7.25;;;;;;;20.59;62.72;101485.63;3598419;39;20055;-62
2022/07/19 04:21:08;;;;;;;10.57;6.15;;;;;;;20.64;62.40;101483.28;3599641;39;20063;-62
2022/07/19 04:23:34;;;;;;;12.27;7.45;;;;;;;20.69;61.17;101488.34;3596229;39;20070;-62
2022/07/19 04:25:59;;;;;;;14.57;8.00;;;;;;;20.74;60.92;101488.78;3600288;39;20059;-61
2022/07/19 04:28:25;;;;;;;15.07;9.10;;;;;;;20.77;60.29;101482.16;3600584;39;20381;-62
2022/07/19 04:30:51;;;;;;;13.25;7.88;;;;;;;20.80;60.84;101487.31;3599352;39;20048;-61
2022/07/19 04:33:18;;;;;;;11.82;7.07;;;;;;;20.83;60.74;101490.63;3601872;39;20051;-62
2022/07/19 04:35:45;;;;;;;23.52;14.77;;;;;;;20.85;60.31;101479.56;3598220;39;20059;-62
2022/07/19 04:38:12;;;;;;;17.42;13.52;;;;;;;20.90;60.69;101482.72;3596975;39;20088;-62
2022/07/19 04:40:38;;;;;;;17.27;11.60;;;;;;;20.95;59.63;101480.41;3598720;39;20051;-61
2022/07/19 04:43:04;;;;;;;10.65;6.95;;;;;;;21.00;59.69;101486.31;3596982;39;20059;-61
2022/07/19 04:45:30;;;;;;;11.02;7.40;;;;;;;20.92;60.00;101464.28;3598132;39;20107;-61
2022/07/19 04:47:56;;;;;;;10.73;7.00;;;;;;;21.07;60.32;101489.31;3597358;39;20063;-62
2022/07/19 04:50:21;;;;;;;10.73;6.68;;;;;;;21.09;60.09;101485.44;3598064;39;20409;-62
2022/07/19 04:52:47;;;;;;;8.32;6.65;;;;;;;20.53;59.50;101382.41;3596325;39;20962;-62
2022/07/19 04:55:14;;;;;;;9.45;6.95;;;;;;;21.26;60.00;101494.72;3597955;39;20135;-64
2022/07/19 04:57:39;;;;;;;11.45;6.75;;;;;;;21.30;59.53;101492.56;3598187;39;20055;-61
2022/07/19 05:00:09;;;;;;;11.63;6.63;;;;;;;21.35;59.39;101492.13;3598756;39;20058;-62
2022/07/19 05:02:38;;;;;;;13.60;6.97;;;;;;;21.14;59.78;101445.84;3596348;39;20055;-61
2022/07/19 05:05:05;;;;;;;10.68;6.95;;;;;;;21.46;59.61;101489.22;3598374;39;20057;-62
2022/07/19 05:07:31;;;;;;;11.27;6.72;;;;;;;21.50;59.51;101486.06;3598877;39;20056;-61
2022/07/19 05:09:57;;;;;;;10.32;6.63;;;;;;;21.29;58.95;101438.88;3595683;39;20516;-62
2022/07/19 05:12:23;;;;;;;10.85;7.97;;;;;;;21.58;58.33;101488.03;3598740;39;20120;-62
2022/07/19 05:14:48;;;;;;;11.50;7.45;;;;;;;21.62;58.11;101475.75;3596533;39;20151;-62
2022/07/19 05:17:14;;;;;;;10.55;7.45;;;;;;;21.65;58.67;101471.88;3596859;39;20054;-61
2022/07/19 05:19:41;;;;;;;12.30;7.68;;;;;;;21.70;58.19;101486.81;3597860;39;20058;-62
2022/07/19 05:22:06;;;;;;;11.68;7.63;;;;;;;21.78;58.19;101488.78;3598269;39;20083;-62
2022/07/19 05:24:32;;;;;;;9.65;7.60;;;;;;;21.83;57.31;101481.00;3598423;39;20054;-62
2022/07/19 05:26:58;;;;;;;14.68;7.85;;;;;;;21.89;58.57;101480.38;3595774;39;20068;-62
2022/07/19 05:29:23;;;;;;;12.32;7.60;;;;;;;21.80;59.16;101464.88;3598495;39;20413;-62
2022/07/19 05:31:49;;;;;;;10.27;7.90;;;;;;;21.99;58.78;101486.66;3597749;39;20072;-62
2022/07/19 05:34:14;;;;;;;12.98;7.88;;;;;;;22.04;57.73;101486.19;3588172;39;20121;-62
2022/07/19 05:36:41;;;;;;;12.52;7.75;;;;;;;22.09;58.12;101492.06;3595840;39;20370;-62
2022/07/19 05:39:07;;;;;;;11.57;7.93;;;;;;;21.91;58.23;101455.59;3596741;39;20405;-62
2022/07/19 05:41:33;;;;;;;13.50;10.18;;;;;;;22.20;55.50;101512.94;3597703;39;20127;-62
2022/07/19 05:43:58;;;;;;;14.02;9.40;;;;;;;22.28;55.09;101507.56;3597772;39;20079;-62
2022/07/19 05:46:24;;;;;;;14.98;9.30;;;;;;;22.39;55.70;101503.72;3597255;39;20051;-62
2022/07/19 05:48:50;;;;;;;14.75;9.93;;;;;;;22.47;54.77;101509.28;3595270;39;20068;-63
2022/07/19 05:51:15;;;;;;;12.77;9.95;;;;;;;22.52;53.75;101492.38;3595841;39;20438;-62
2022/07/19 05:53:42;;;;;;;15.88;10.25;;;;;;;22.68;52.79;101498.03;3596755;39;20458;-63
2022/07/19 05:56:08;;;;;;;13.60;9.48;;;;;;;22.80;52.57;101498.63;3597360;39;21692;-62
2022/07/19 05:58:34;;;;;;;16.55;9.30;;;;;;;22.88;52.19;101504.19;3596717;39;20052;-63
2022/07/19 06:03:59;;;;;;;14.10;9.70;;;;;;;23.13;51.10;101486.06;3585547;39;20120;-63
2022/07/19 06:06:29;;;;;;;13.73;9.30;;;;;;;23.30;49.96;101498.88;3598042;39;20058;-63
2022/07/19 06:08:56;;;;;;;15.32;8.80;;;;;;;23.43;49.13;101503.91;3594926;39;20172;-63
2022/07/19 06:11:23;;;;;;;16.13;8.52;;;;;;;23.55;48.49;101497.13;3597019;39;20047;-63
2022/07/19 06:13:50;;;;;;;15.77;7.85;;;;;;;23.69;48.15;101503.94;3592769;39;20058;-64
2022/07/19 06:16:16;;;;;;;11.90;7.47;;;;;;;23.77;47.58;101490.22;3599652;39;20117;-64
2022/07/19 06:18:43;;;;;;;15.10;7.50;;;;;;;23.91;47.01;101501.59;3596402;39;20374;-63
2022/07/19 06:21:13;;;;;;;14.18;7.30;;;;;;;24.03;47.03;101505.78;3598717;39;20101;-63
2022/07/19 06:23:40;;;;;;;20.40;7.75;;;;;;;24.18;46.65;101498.63;3597691;39;20067;-63
2022/07/19 06:26:08;;;;;;;13.68;6.75;;;;;;;24.34;46.97;101497.81;3598929;39;20378;-63
2022/07/19 06:28:35;;;;;;;10.23;6.35;;;;;;;24.52;45.55;101497.69;3598907;39;20071;-63
2022/07/19 06:31:01;;;;;;;15.90;6.55;;;;;;;24.69;45.81;101502.16;3599647;39;20099;-65
2022/07/19 06:33:27;;;;;;;16.60;6.43;;;;;;;24.90;45.22;101506.31;3589007;39;20372;-63
2022/07/19 06:35:53;;;;;;;15.48;6.22;;;;;;;25.08;44.41;101506.97;3597784;39;20066;-64
2022/07/19 06:38:19;;;;;;;12.98;6.00;;;;;;;25.24;44.50;101501.47;3596870;39;20360;-64
2022/07/19 06:40:45;;;;;;;11.45;6.03;;;;;;;25.44;43.96;101501.13;3597681;39;20051;-63
2022/07/19 06:43:11;;;;;;;15.77;6.20;;;;;;;25.64;42.66;101501.56;3597952;39;20129;-64
2022/07/19 06:45:37;;;;;;;14.02;5.82;;;;;;;25.82;42.94;101498.63;3600447;39;20051;-64
2022/07/19 06:48:04;;;;;;;13.38;5.75;;;;;;;26.04;42.95;101503.34;3600687;39;20051;-64
2022/07/19 06:50:30;;;;;;;20.63;6.05;;;;;;;26.25;42.78;101499.06;3602096;39;20055;-64
2022/07/19 06:52:55;;;;;;;13.70;5.50;;;;;;;26.44;43.09;101498.59;3598475;39;20297;-64
2022/07/19 06:55:21;;;;;;;11.27;5.30;;;;;;;26.66;43.01;101498.81;3601390;39;20055;-63
2022/07/19 06:57:47;;;;;;;19.20;5.07;;;;;;;26.86;42.56;101494.50;3599530;39;20049;-64
2022/07/19 07:00:13;;;;;;;11.82;5.40;;;;;;;27.06;41.96;101492.13;3599206;39;20059;-63
2022/07/19 07:02:40;;;;;;;12.88;4.80;;;;;;;27.25;41.50;101494.38;3599783;39;20047;-63
2022/07/19 07:05:09;;;;;;;9.23;4.75;;;;;;;27.41;40.51;101495.25;3602258;39;20394;-64
2022/07/19 07:07:35;;;;;;;11.18;4.70;;;;;;;27.51;40.51;101499.44;3599759;39;20060;-64
2022/07/19 07:10:01;;;;;;;14.18;5.05;;;;;;;27.70;39.77;101495.22;3599823;39;20067;-64
2022/07/19 07:12:28;;;;;;;14.13;4.82;;;;;;;27.68;39.21;101455.88;3600621;39;20105;-64
2022/07/19 07:14:54;;;;;;;12.43;4.47;;;;;;;27.96;39.74;101483.69;3598727;39;20067;-64
2022/07/19 07:17:20;;;;;;;15.32;4.72;;;;;;;28.27;37.45;101499.19;3596940;39;20060;-64
2022/07/19 07:19:46;;;;;;;8.80;5.15;;;;;;;28.38;37.25;101487.59;3596153;39;20079;-64
2022/07/19 07:22:12;;;;;;;8.60;4.57;;;;;;;28.55;36.79;101493.78;3598872;39;20270;-64
2022/07/19 07:24:37;;;;;;;9.88;4.82;;;;;;;28.68;36.82;101490.28;3595885;39;20166;-64
2022/07/19 07:27:03;;;;;;;8.48;4.30;;;;;;;28.82;37.16;101494.88;3596237;39;20067;-64
2022/07/19 07:29:29;;;;;;;8.68;4.13;;;;;;;29.06;37.58;101490.00;3597679;39;20141;-64
2022/07/19 07:31:55;;;;;;;9.95;4.50;;;;;;;29.25;37.69;101492.06;3596126;39;20446;-64
2022/07/19 07:34:20;;;;;;;9.48;4.10;;;;;;;29.46;36.48;101490.28;3597433;39;20067;-64
2022/07/19 07:36:46;;;;;;;15.32;4.18;;;;;;;29.56;35.43;101479.69;3597175;39;20056;-64
2022/07/19 07:39:12;;;;;;;8.00;3.83;;;;;;;29.84;36.81;101494.41;3597660;39;20446;-64
2022/07/19 07:41:38;;;;;;;6.82;3.30;;;;;;;29.92;33.74;101486.94;3597547;39;20063;-64
2022/07/19 07:44:04;;;;;;;9.57;3.38;;;;;;;29.98;34.60;101480.59;3597403;39;20078;-66
2022/07/19 07:46:30;;;;;;;9.63;3.83;;;;;;;30.25;33.34;101484.31;3599484;39;20471;-64
2022/07/19 07:48:56;;;;;;;6.97;3.65;;;;;;;30.40;34.94;101492.47;3597555;39;20063;-63
2022/07/19 07:51:21;;;;;;;6.28;3.13;;;;;;;30.53;32.74;101482.25;3589541;39;20947;-64
2022/07/19 07:53:47;;;;;;;10.35;3.50;;;;;;;30.62;32.58;101480.13;3596252;39;20047;-63
2022/07/19 07:56:13;;;;;;;8.13;3.53;;;;;;;30.69;32.61;101469.88;3598279;39;20644;-64
2022/07/19 07:58:38;;;;;;;6.95;3.20;;;;;;;30.90;32.48;101465.25;3598682;39;20053;-64
2022/07/19 08:01:04;;;;;;;11.45;3.83;;;;;;;31.11;31.89;101470.56;3598982;39;20063;-64
2022/07/19 08:03:30;;;;;;;8.43;3.20;;;;;;;31.22;31.47;101469.06;3596962;39;20133;-64
2022/07/19 08:05:57;;;;;;;8.02;3.28;;;;;;;31.22;31.79;101464.34;3596832;39;20051;-64
2022/07/19 08:08:26;;;;;;;8.98;3.35;;;;;;;31.38;30.43;101467.78;3597769;39;20059;-64
2022/07/19 08:10:56;;;;;;;9.48;3.20;;;;;;;31.52;29.86;101466.66;3596385;39;20048;-64
2022/07/19 08:13:23;;;;;;;3.97;3.08;;;;;;;31.58;30.90;101463.00;3597034;39;20051;-64
2022/07/19 08:15:49;;;;;;;8.63;3.45;;;;;;;31.78;31.48;101462.97;3589730;39;20051;-63
2022/07/19 08:18:16;;;;;;;13.10;3.47;;;;;;;32.00;30.59;101460.75;3597598;39;20095;-64
2022/07/19 08:20:41;;;;;;;11.35;3.40;;;;;;;32.24;29.55;101458.28;3594971;39;20080;-64
2022/07/19 08:23:07;;;;;;;9.10;3.33;;;;;;;32.48;29.71;101467.75;3596598;39;20083;-64
2022/07/19 08:25:34;;;;;;;9.43;3.35;;;;;;;32.68;29.21;101468.50;3597171;39;20081;-64
2022/07/19 08:28:00;;;;;;;6.18;3.05;;;;;;;32.87;28.99;101465.78;3597234;39;20049;-64
2022/07/19 08:30:28;;;;;;;9.00;2.97;;;;;;;33.01;28.29;101461.81;3596479;39;20451;-64
2022/07/19 08:32:53;;;;;;;6.32;3.00;;;;;;;33.19;29.52;101461.00;3595631;39;20055;-64
2022/07/19 08:35:19;;;;;;;8.00;3.28;;;;;;;33.37;29.12;101461.03;3597135;39;20415;-65
2022/07/19 08:37:45;;;;;;;8.90;3.53;;;;;;;33.48;27.56;101449.09;3595468;39;20066;-65
2022/07/19 08:40:11;;;;;;;5.78;3.40;;;;;;;33.61;27.49;101455.66;3598883;39;20067;-65
2022/07/19 08:42:37;;;;;;;5.22;2.97;;;;;;;33.68;27.77;101453.63;3596319;39;20352;-65
2022/07/19 08:45:11;;;;;;;7.03;3.20;;;;;;;33.82;28.47;101452.38;3596760;39;20075;-65
2022/07/19 08:47:38;;;;;;;8.85;2.90;;;;;;;34.07;27.59;101452.31;3596920;39;20109;-65
2022/07/19 08:50:08;;;;;;;10.15;3.20;;;;;;;34.18;26.55;101450.63;3596678;39;20060;-65
2022/07/19 08:52:35;;;;;;;8.40;3.10;;;;;;;34.20;26.82;101437.31;3595455;39;20056;-65
2022/07/19 08:55:02;;;;;;;5.07;2.72;;;;;;;34.40;27.34;101446.22;3594765;39;20058;-65
2022/07/19 09:00:13;;;;;;;9.95;3.03;;;;;;;34.57;27.16;101437.19;3595306;39;20063;-65
2022/07/19 09:02:40;;;;;;;6.82;3.38;;;;;;;34.91;27.53;101443.06;3596100;39;20344;-65
2022/07/19 09:05:10;;;;;;;12.63;3.63;;;;;;;35.08;27.52;101438.50;3596133;39;20052;-65
2022/07/19 09:07:39;;;;;;;6.47;2.90;;;;;;;35.07;25.84;101418.06;3596861;39;20047;-65
2022/07/19 09:10:17;;;;;;;5.38;3.00;;;;;;;35.34;26.35;101440.78;3589441;39;20043;-65
2022/07/19 09:13:11;;;;;;;4.90;3.13;;;;;;;35.64;25.63;101434.19;3596217;39;20067;-66
2022/07/19 09:15:54;;;;;;;9.55;3.58;;;;;;;35.76;25.71;101436.97;3595584;39;20116;-65
2022/07/19 09:18:21;;;;;;;6.05;3.22;;;;;;;35.85;26.89;101435.47;3598592;39;20060;-64
2022/07/19 09:21:00;;;;;;;7.32;3.30;;;;;;;36.00;24.73;101429.34;3596644;39;20108;-64
2022/07/19 09:23:28;;;;;;;10.27;3.15;;;;;;;36.00;26.56;101434.94;3598052;39;20120;-65
2022/07/19 09:26:00;;;;;;;6.30;3.35;;;;;;;36.13;25.13;101429.06;3597465;39;20071;-65
2022/07/19 09:28:31;;;;;;;5.75;3.28;;;;;;;36.19;25.08;101430.88;3598032;39;20060;-65
2022/07/19 09:30:59;;;;;;;5.40;2.90;;;;;;;36.29;24.15;101423.75;3596468;39;20053;-65
2022/07/19 09:33:29;;;;;;;5.20;2.90;;;;;;;36.38;23.39;101431.50;3595920;39;20803;-65
2022/07/19 09:36:02;;;;;;;8.52;3.20;;;;;;;36.55;23.25;101427.91;3589335;39;20051;-65
2022/07/19 09:38:37;;;;;;;3.65;2.78;;;;;;;36.61;23.54;101436.13;3599254;39;20079;-65
2022/07/19 09:41:08;;;;;;;7.72;2.88;;;;;;;36.83;23.48;101435.38;3598829;39;20327;-65
2022/07/19 09:43:55;;;;;;;8.20;3.40;;;;;;;36.71;24.16;101429.84;3597307;39;20055;-65
2022/07/19 09:46:35;;;;;;;5.72;3.25;;;;;;;36.96;23.54;101426.59;3597591;39;20095;-65
2022/07/19 09:49:15;;;;;;;5.60;2.83;;;;;;;37.24;24.48;101420.06;3596624;39;20123;-65
2022/07/19 09:51:44;;;;;;;10.00;3.40;;;;;;;37.59;21.81;101422.53;3597063;39;20302;-65
2022/07/19 09:54:17;;;;;;;5.72;3.15;;;;;;;37.60;22.26;101424.22;3598466;39;20291;-65
2022/07/19 09:56:45;;;;;;;8.07;2.90;;;;;;;37.64;22.78;101419.75;3596869;39;20094;-66
2022/07/19 09:59:13;;;;;;;4.93;2.78;;;;;;;37.73;20.81;101420.16;3597011;39;20059;-66
2022/07/19 10:01:40;;;;;;;6.78;2.88;;;;;;;37.75;22.08;101425.53;3595816;39;20055;-66
2022/07/19 10:04:18;;;;;;;7.65;2.80;;;;;;;37.85;21.38;101414.41;3599354;39;20607;-64
2022/07/19 10:06:47;;;;;;;5.60;3.20;;;;;;;37.96;22.22;101413.44;3598892;39;20059;-65
2022/07/19 10:09:18;;;;;;;6.03;2.90;;;;;;;37.60;21.75;101365.28;3597496;39;20305;-64
2022/07/19 10:11:45;;;;;;;4.22;2.95;;;;;;;37.86;21.28;101396.44;3598371;39;20062;-64
2022/07/19 10:14:14;;;;;;;6.43;2.97;;;;;;;38.05;21.46;101413.81;3599929;39;20054;-64
2022/07/19 10:16:57;;;;;;;9.50;2.90;;;;;;;38.22;21.36;101422.13;3597398;39;20663;-64
2022/07/19 10:19:45;;;;;;;5.63;2.88;;;;;;;38.24;20.19;101408.69;3602358;39;20056;-65
2022/07/19 10:22:18;;;;;;;6.60;3.03;;;;;;;38.46;21.50;101403.00;3600011;39;20053;-65
2022/07/19 10:24:50;;;;;;;3.00;2.70;;;;;;;38.40;21.34;101402.13;3600219;39;20044;-64
2022/07/19 10:27:23;;;;;;;3.88;2.63;;;;;;;38.52;20.10;101399.97;3600280;39;20081;-65
2022/07/19 10:29:50;;;;;;;5.45;2.80;;;;;;;38.62;19.76;101399.22;3599782;39;20067;-65
2022/07/19 10:32:16;;;;;;;4.35;2.70;;;;;;;38.63;19.74;101408.50;3601969;39;20051;-65
2022/07/19 10:34:51;;;;;;;5.78;2.80;;;;;;;38.58;19.78;101391.59;3596982;39;20103;-65
2022/07/19 10:37:41;;;;;;;5.32;2.78;;;;;;;38.68;19.70;101394.47;3604071;39;20058;-65
2022/07/19 10:40:07;;;;;;;4.45;2.83;;;;;;;38.67;20.47;101390.84;3599671;39;20051;-64
2022/07/19 10:42:33;;;;;;;4.47;2.58;;;;;;;38.65;20.49;101375.34;3598188;39;20063;-64
2022/07/19 10:45:01;;;;;;;5.07;2.70;;;;;;;38.81;19.97;101385.59;3600174;39;20059;-64
2022/07/19 10:47:37;;;;;;;6.65;2.90;;;;;;;38.84;19.95;101376.63;3597624;39;20356;-65
2022/07/19 10:50:18;;;;;;;5.50;2.50;;;;;;;38.99;18.14;101376.75;3599247;39;20398;-65
2022/07/19 10:52:45;;;;;;;4.65;2.55;;;;;;;39.00;20.24;101364.38;3599482;39;20090;-66
2022/07/19 10:55:16;;;;;;;4.10;2.55;;;;;;;39.26;19.45;101375.75;3596435;39;20058;-66
2022/07/19 10:58:06;;;;;;;3.97;2.70;;;;;;;39.39;19.00;101369.69;3599130;39;20076;-66
2022/07/19 11:00:44;;;;;;;4.28;2.20;;;;;;;39.26;19.11;101375.75;3597757;39;20287;-66
2022/07/19 11:03:28;;;;;;;4.80;2.42;;;;;;;39.40;19.00;101364.91;3599826;39;20063;-66
2022/07/19 11:06:04;;;;;;;5.68;2.45;;;;;;;39.70;18.71;101364.16;3595781;39;20113;-66
2022/07/19 11:08:37;;;;;;;10.32;2.60;;;;;;;39.97;17.79;101357.50;3598538;39;20056;-66
2022/07/19 11:11:10;;;;;;;6.93;2.40;;;;;;;39.98;18.24;101353.53;3598173;39;20055;-66
2022/07/19 11:13:39;;;;;;;6.30;2.80;;;;;;;40.04;18.36;101350.44;3596703;39;20336;-65
2022/07/19 11:16:06;;;;;;;8.77;2.30;;;;;;;40.09;17.87;101355.22;3596723;39;20059;-66
2022/07/19 11:18:32;;;;;;;6.13;2.40;;;;;;;40.06;17.07;101350.16;3598265;39;20466;-66
2022/07/19 11:21:05;;;;;;;5.25;2.38;;;;;;;39.99;17.86;101338.34;3595987;39;20059;-66
2022/07/19 11:23:38;;;;;;;5.72;2.30;;;;;;;40.22;18.39;101343.47;3598833;39;20048;-66
2022/07/19 11:26:23;;;;;;;5.03;2.72;;;;;;;40.27;17.72;101340.63;3597458;39;20056;-65
2022/07/19 11:28:50;;;;;;;4.80;2.75;;;;;;;40.36;18.03;101332.47;3597834;39;20406;-66
2022/07/19 11:31:24;;;;;;;8.25;2.70;;;;;;;40.44;17.60;101333.84;3600492;39;20077;-66
2022/07/19 11:33:56;;;;;;;4.78;2.60;;;;;;;40.38;18.31;101316.97;3598680;39;20060;-64